Frisium — PHYQ — position and weather

sailwx.info

Track history (hours):
 
Tides and Currents Weather Stations Pressure Air Temp Water Temp Dewpoint Dewpoint Depression Visibility Wind Speed Wind Dir Waves Ship Positions

Frisium

Last reported at 2018-Apr-23 23:55 UTC. Time now 2018-Apr-25 06:45 UTC.
Position N 53°41' W 000°31'.

Length 87 m; draft 3.8 m.

Type: Cargo ship. MMSI: 245824000.

Date/timePositionNaut miles runAvg speedWind from/ knotsBaromVisibWave heightAir tempDewpointWater temp
2018-Apr-23 23:55N 53°41' W 000°31'3 7.6
2018-Apr-23 23:30N 53°42' W 000°26'4 8.5
2018-Apr-23 22:59N 53°43' W 000°19'3 7.0
2018-Apr-23 22:30N 53°42' W 000°14'66 3.8
2018-Apr-23 05:26N 53°01' E 001°12'410.2
2018-Apr-23 05:00N 52°59' E 001°18'510.1
2018-Apr-23 04:30N 52°57' E 001°26'5 9.5
2018-Apr-23 04:00N 52°55' E 001°33'4 9.0
2018-Apr-23 03:30N 52°53' E 001°40'4 8.2
2018-Apr-23 03:00N 52°50' E 001°45'4 7.7
2018-Apr-23 02:30N 52°47' E 001°49'4 7.2
2018-Apr-23 02:00N 52°44' E 001°52'3 6.9
2018-Apr-23 01:30N 52°41' E 001°55'29 7.9
2018-Apr-22 21:50N 52°12' E 001°49'310.5
2018-Apr-22 21:30N 52°08' E 001°49'510.7
2018-Apr-22 21:00N 52°03' E 001°48'611.1
2018-Apr-22 20:30N 51°57' E 001°48'611.2
2018-Apr-22 20:00N 51°52' E 001°48'611.1
2018-Apr-22 19:30N 51°46' E 001°49'911.0
2018-Apr-22 18:40N 51°37' E 001°49'411.1
2018-Apr-22 18:19N 51°33' E 001°48'411.1
2018-Apr-22 18:00N 51°30' E 001°46'611.2
2018-Apr-22 17:30N 51°25' E 001°44'611.3
2018-Apr-22 17:00N 51°19' E 001°42'611.3
2018-Apr-22 16:30N 51°14' E 001°39'510.0
2018-Apr-22 16:00N 51°09' E 001°39'510.3
2018-Apr-22 15:29N 51°04' E 001°36'16 9.9
2018-Apr-22 13:51N 50°50' E 001°22'43 8.4
2018-Apr-22 08:45N 50°26' E 000°26'4 8.3
2018-Apr-22 08:19N 50°25' E 000°20'3 8.1
2018-Apr-22 07:59N 50°24' E 000°16'4 8.1
2018-Apr-22 07:27N 50°23' E 000°10'6 8.1
2018-Apr-22 06:42N 50°21' E 000°01'2 8.2
2018-Apr-22 06:28N 50°21' W 000°02'4 8.2
2018-Apr-22 06:00N 50°20' W 000°08'4 8.1
2018-Apr-22 05:30N 50°19' W 000°14'4 8.1
2018-Apr-22 05:00N 50°18' W 000°20'4 8.2
2018-Apr-22 04:28N 50°16' W 000°27'4 8.5
2018-Apr-22 04:00N 50°15' W 000°33'5 8.9
2018-Apr-22 03:29N 50°14' W 000°40'5 9.5
2018-Apr-22 03:00N 50°13' W 000°46'510.2
2018-Apr-22 02:29N 50°11' W 000°54'510.9
2018-Apr-22 02:00N 50°09' W 001°02'611.4
2018-Apr-22 01:30N 50°08' W 001°11'611.8
2018-Apr-22 01:00N 50°06' W 001°20'612.1
2018-Apr-22 00:30N 50°04' W 001°29'612.4
2018-Apr-22 00:00N 50°03' W 001°38'612.5
2018-Apr-21 23:30N 50°01' W 001°47'612.6
2018-Apr-21 23:00N 49°59' W 001°57'2910.7
2018-Apr-21 20:15N 49°50' W 002°40'8 8.9
2018-Apr-21 19:22N 49°48' W 002°52'3 8.3
2018-Apr-21 19:00N 49°46' W 002°55'4 8.1
2018-Apr-21 18:30N 49°43' W 003°00'4 7.8
2018-Apr-21 18:00N 49°41' W 003°05'90 8.8
2018-Apr-21 07:48N 48°47' W 004°55'1011.1
2018-Apr-21 06:53N 48°41' W 005°07'1011.3
2018-Apr-21 05:59N 48°34' W 005°19'1310.1
2018-Apr-21 04:39N 48°21' W 005°21'110.7
2018-Apr-21 04:30N 48°19' W 005°21'510.5
2018-Apr-21 04:00N 48°14' W 005°19'5 9.9
2018-Apr-21 03:30N 48°09' W 005°18'5 9.6
2018-Apr-21 03:00N 48°04' W 005°16'5 9.7
2018-Apr-21 02:30N 47°60' W 005°15'5 9.1
2018-Apr-21 02:00N 47°56' W 005°12'4 9.0
2018-Apr-21 01:30N 47°52' W 005°09'4 8.8
2018-Apr-21 01:00N 47°48' W 005°06'5 9.0
2018-Apr-21 00:30N 47°44' W 005°03'4 8.7
2018-Apr-21 00:00N 47°40' W 004°60'53 8.4
2018-Apr-20 17:41N 46°53' W 004°24'2 8.9
2018-Apr-20 17:30N 46°51' W 004°23'5 9.1
2018-Apr-20 17:00N 46°47' W 004°20'  
2018-Apr-14 06:06N 52°44' W 005°41'1 7.3
2018-Apr-14 05:56N 52°45' W 005°41'3 7.5
2018-Apr-14 05:30N 52°48' W 005°40'4 7.9
2018-Apr-14 05:00N 52°52' W 005°39'4 8.4
2018-Apr-14 04:29N 52°56' W 005°39'4 9.1
2018-Apr-14 04:00N 53°01' W 005°38'910.5
2018-Apr-14 03:09N 53°09' W 005°35'610.8
2018-Apr-14 02:37N 53°15' W 005°33'210.9
2018-Apr-14 02:28N 53°17' W 005°33'  
Track history (hours):
 
Tides and Currents Weather Stations Pressure Air Temp Water Temp Dewpoint Dewpoint Depression Visibility Wind Speed Wind Dir Waves Ship Positions

Frisium

Last reported at 2018-Apr-23 23:55 UTC. Time now 2018-Apr-25 06:45 UTC.
Position N 53°41' W 000°31'.

Length 87 m; draft 3.8 m.

Type: Cargo ship. MMSI: 245824000.

Date/timePositionNaut miles runAvg speedWind from/ knotsBaromVisibWave heightAir tempDewpointWater temp
2018-Apr-23 23:55N 53°41' W 000°31'3 7.6
2018-Apr-23 23:30N 53°42' W 000°26'4 8.5
2018-Apr-23 22:59N 53°43' W 000°19'3 7.0
2018-Apr-23 22:30N 53°42' W 000°14'66 3.8
2018-Apr-23 05:26N 53°01' E 001°12'410.2
2018-Apr-23 05:00N 52°59' E 001°18'510.1
2018-Apr-23 04:30N 52°57' E 001°26'5 9.5
2018-Apr-23 04:00N 52°55' E 001°33'4 9.0
2018-Apr-23 03:30N 52°53' E 001°40'4 8.2
2018-Apr-23 03:00N 52°50' E 001°45'4 7.7
2018-Apr-23 02:30N 52°47' E 001°49'4 7.2
2018-Apr-23 02:00N 52°44' E 001°52'3 6.9
2018-Apr-23 01:30N 52°41' E 001°55'29 7.9
2018-Apr-22 21:50N 52°12' E 001°49'310.5
2018-Apr-22 21:30N 52°08' E 001°49'510.7
2018-Apr-22 21:00N 52°03' E 001°48'611.1
2018-Apr-22 20:30N 51°57' E 001°48'611.2
2018-Apr-22 20:00N 51°52' E 001°48'611.1
2018-Apr-22 19:30N 51°46' E 001°49'911.0
2018-Apr-22 18:40N 51°37' E 001°49'411.1
2018-Apr-22 18:19N 51°33' E 001°48'411.1
2018-Apr-22 18:00N 51°30' E 001°46'611.2
2018-Apr-22 17:30N 51°25' E 001°44'611.3
2018-Apr-22 17:00N 51°19' E 001°42'611.3
2018-Apr-22 16:30N 51°14' E 001°39'510.0
2018-Apr-22 16:00N 51°09' E 001°39'510.3
2018-Apr-22 15:29N 51°04' E 001°36'16 9.9
2018-Apr-22 13:51N 50°50' E 001°22'43 8.4
2018-Apr-22 08:45N 50°26' E 000°26'4 8.3
2018-Apr-22 08:19N 50°25' E 000°20'3 8.1
2018-Apr-22 07:59N 50°24' E 000°16'4 8.1
2018-Apr-22 07:27N 50°23' E 000°10'6 8.1
2018-Apr-22 06:42N 50°21' E 000°01'2 8.2
2018-Apr-22 06:28N 50°21' W 000°02'4 8.2
2018-Apr-22 06:00N 50°20' W 000°08'4 8.1
2018-Apr-22 05:30N 50°19' W 000°14'4 8.1
2018-Apr-22 05:00N 50°18' W 000°20'4 8.2
2018-Apr-22 04:28N 50°16' W 000°27'4 8.5
2018-Apr-22 04:00N 50°15' W 000°33'5 8.9
2018-Apr-22 03:29N 50°14' W 000°40'5 9.5
2018-Apr-22 03:00N 50°13' W 000°46'510.2
2018-Apr-22 02:29N 50°11' W 000°54'510.9
2018-Apr-22 02:00N 50°09' W 001°02'611.4
2018-Apr-22 01:30N 50°08' W 001°11'611.8
2018-Apr-22 01:00N 50°06' W 001°20'612.1
2018-Apr-22 00:30N 50°04' W 001°29'612.4
2018-Apr-22 00:00N 50°03' W 001°38'612.5
2018-Apr-21 23:30N 50°01' W 001°47'612.6
2018-Apr-21 23:00N 49°59' W 001°57'2910.7
2018-Apr-21 20:15N 49°50' W 002°40'8 8.9
2018-Apr-21 19:22N 49°48' W 002°52'3 8.3
2018-Apr-21 19:00N 49°46' W 002°55'4 8.1
2018-Apr-21 18:30N 49°43' W 003°00'4 7.8
2018-Apr-21 18:00N 49°41' W 003°05'90 8.8
2018-Apr-21 07:48N 48°47' W 004°55'1011.1
2018-Apr-21 06:53N 48°41' W 005°07'1011.3
2018-Apr-21 05:59N 48°34' W 005°19'1310.1
2018-Apr-21 04:39N 48°21' W 005°21'110.7
2018-Apr-21 04:30N 48°19' W 005°21'510.5
2018-Apr-21 04:00N 48°14' W 005°19'5 9.9
2018-Apr-21 03:30N 48°09' W 005°18'5 9.6
2018-Apr-21 03:00N 48°04' W 005°16'5 9.7
2018-Apr-21 02:30N 47°60' W 005°15'5 9.1
2018-Apr-21 02:00N 47°56' W 005°12'4 9.0
2018-Apr-21 01:30N 47°52' W 005°09'4 8.8
2018-Apr-21 01:00N 47°48' W 005°06'5 9.0
2018-Apr-21 00:30N 47°44' W 005°03'4 8.7
2018-Apr-21 00:00N 47°40' W 004°60'53 8.4
2018-Apr-20 17:41N 46°53' W 004°24'2 8.9
2018-Apr-20 17:30N 46°51' W 004°23'5 9.1
2018-Apr-20 17:00N 46°47' W 004°20'  
2018-Apr-14 06:06N 52°44' W 005°41'1 7.3
2018-Apr-14 05:56N 52°45' W 005°41'3 7.5
2018-Apr-14 05:30N 52°48' W 005°40'4 7.9
2018-Apr-14 05:00N 52°52' W 005°39'4 8.4
2018-Apr-14 04:29N 52°56' W 005°39'4 9.1
2018-Apr-14 04:00N 53°01' W 005°38'910.5
2018-Apr-14 03:09N 53°09' W 005°35'610.8
2018-Apr-14 02:37N 53°15' W 005°33'210.9
2018-Apr-14 02:28N 53°17' W 005°33'  

Dump ship's entire track history